createdAt,value
2023-04-07T00:01:49.433Z,63.32
2023-04-07T00:04:17.670Z,63.70
2023-04-07T00:06:45.946Z,63.82
2023-04-07T00:09:13.983Z,63.31
2023-04-07T00:11:42.048Z,63.73
2023-04-07T00:14:10.340Z,64.12
2023-04-07T00:16:39.912Z,64.07
2023-04-07T00:19:08.089Z,64.41
2023-04-07T00:21:36.151Z,64.02
2023-04-07T00:24:04.365Z,63.71
2023-04-07T00:26:32.996Z,63.64
2023-04-07T00:29:01.447Z,63.78
2023-04-07T00:31:29.557Z,63.77
2023-04-07T00:33:58.898Z,63.66
2023-04-07T00:36:28.727Z,63.52
2023-04-07T00:38:56.798Z,63.65
2023-04-07T00:41:24.846Z,63.58
2023-04-07T00:43:53.213Z,63.88
2023-04-07T00:46:24.634Z,64.34
2023-04-07T00:48:52.793Z,64.17
2023-04-07T00:51:22.913Z,64.50
2023-04-07T00:53:51.222Z,64.12
2023-04-07T00:56:19.315Z,64.22
2023-04-07T00:58:47.464Z,64.91
2023-04-07T01:01:24.100Z,64.70
2023-04-07T01:04:02.621Z,64.44
2023-04-07T01:06:39.261Z,64.22
2023-04-07T01:09:19.190Z,64.20
2023-04-07T01:12:00.656Z,64.17
2023-04-07T01:14:38.537Z,63.86
2023-04-07T01:17:24.564Z,64.03
2023-04-07T01:20:00.240Z,64.00
2023-04-07T01:22:42.947Z,64.01
2023-04-07T01:25:36.494Z,64.09
2023-04-07T01:28:31.466Z,64.18
2023-04-07T01:31:02.755Z,64.09
2023-04-07T01:33:34.960Z,64.23
2023-04-07T01:36:06.200Z,64.46
2023-04-07T01:38:41.164Z,63.98
2023-04-07T01:41:11.121Z,64.26
2023-04-07T01:43:41.398Z,64.13
2023-04-07T01:46:11.214Z,64.32
2023-04-07T01:48:41.225Z,64.00
2023-04-07T01:51:11.924Z,64.37
2023-04-07T01:53:40.267Z,64.60
2023-04-07T01:56:08.981Z,64.60
2023-04-07T01:58:38.818Z,64.19
2023-04-07T02:01:11.196Z,63.84
2023-04-07T02:03:50.516Z,64.15
2023-04-07T02:06:24.255Z,64.09
2023-04-07T02:09:00.355Z,64.02
2023-04-07T02:11:30.353Z,64.27
2023-04-07T02:14:05.080Z,63.80
2023-04-07T02:16:42.328Z,63.60
2023-04-07T02:19:10.951Z,63.86
2023-04-07T02:24:13.517Z,63.48
2023-04-07T02:26:44.259Z,63.61
2023-04-07T02:29:12.437Z,64.05
2023-04-07T02:31:42.004Z,63.69
2023-04-07T02:34:10.171Z,64.05
2023-04-07T02:36:39.656Z,63.70
2023-04-07T02:39:10.426Z,63.83
2023-04-07T02:41:38.503Z,64.03
2023-04-07T02:44:06.815Z,63.96
2023-04-07T02:46:35.205Z,63.92
2023-04-07T02:49:04.778Z,63.79
2023-04-07T02:51:32.851Z,63.38
2023-04-07T02:54:01.577Z,63.89
2023-04-07T02:56:29.797Z,63.26
2023-04-07T02:58:57.944Z,63.40
2023-04-07T03:01:27.927Z,63.57
2023-04-07T03:03:56.743Z,63.09
2023-04-07T03:06:28.181Z,63.15
2023-04-07T03:09:05.445Z,63.24
2023-04-07T03:11:34.562Z,62.84
2023-04-07T03:14:02.701Z,63.08
2023-04-07T03:16:32.370Z,63.12
2023-04-07T03:19:08.936Z,63.25
2023-04-07T03:21:42.497Z,63.43
2023-04-07T03:24:11.046Z,63.80
2023-04-07T03:26:39.196Z,63.55
2023-04-07T03:29:14.198Z,63.38
2023-04-07T03:31:43.986Z,63.65
2023-04-07T03:34:14.625Z,63.84
2023-04-07T03:36:44.153Z,63.84
2023-04-07T03:39:12.761Z,63.76
2023-04-07T03:41:41.010Z,64.06
2023-04-07T03:44:09.102Z,63.26
2023-04-07T03:46:39.118Z,63.69
2023-04-07T03:49:07.554Z,63.90
2023-04-07T03:51:35.869Z,63.88
2023-04-07T03:54:09.552Z,63.68
2023-04-07T03:56:41.609Z,63.66
2023-04-07T03:59:10.011Z,63.44
2023-04-07T04:01:45.133Z,63.62
2023-04-07T04:04:16.902Z,63.61
2023-04-07T04:06:45.676Z,63.44
2023-04-07T04:09:27.724Z,63.71
2023-04-07T04:11:56.374Z,63.68
2023-04-07T04:14:25.613Z,63.36
2023-04-07T04:16:58.565Z,63.33
2023-04-07T04:19:31.719Z,63.52
2023-04-07T04:22:03.383Z,63.50
2023-04-07T04:24:37.865Z,63.55
2023-04-07T04:27:06.292Z,63.79
2023-04-07T04:29:34.793Z,64.08
2023-04-07T04:32:04.855Z,63.83
2023-04-07T04:34:33.048Z,63.51
2023-04-07T04:37:01.587Z,63.28
2023-04-07T04:39:29.801Z,63.32
2023-04-07T04:42:01.277Z,63.32
2023-04-07T04:44:34.829Z,63.33
2023-04-07T04:47:05.126Z,63.56
2023-04-07T04:49:33.812Z,63.54
2023-04-07T04:52:05.162Z,64.04
2023-04-07T04:54:39.890Z,63.90
2023-04-07T04:57:10.020Z,64.19
2023-04-07T04:59:40.058Z,64.19
2023-04-07T05:02:08.287Z,63.80
2023-04-07T05:04:36.828Z,64.10
2023-04-07T05:07:22.896Z,63.73
2023-04-07T05:09:51.225Z,63.81
2023-04-07T05:12:22.892Z,63.34
2023-04-07T05:14:57.524Z,63.08
2023-04-07T05:17:25.794Z,63.73
2023-04-07T05:19:54.362Z,63.57
2023-04-07T05:22:33.881Z,63.65
2023-04-07T05:25:07.855Z,63.31
2023-04-07T05:27:37.374Z,63.72
2023-04-07T05:30:13.153Z,63.98
2023-04-07T05:32:41.533Z,64.13
2023-04-07T05:35:18.884Z,63.73
2023-04-07T05:37:52.867Z,63.99
2023-04-07T05:40:21.172Z,63.63
2023-04-07T05:42:51.202Z,64.10
2023-04-07T05:45:19.694Z,64.16
2023-04-07T05:47:51.298Z,64.10
2023-04-07T05:50:25.846Z,64.31
2023-04-07T05:52:54.087Z,64.08
2023-04-07T05:55:28.218Z,64.32
2023-04-07T05:57:58.871Z,64.32
2023-04-07T06:00:30.433Z,64.12
2023-04-07T06:03:08.030Z,63.47
2023-04-07T06:05:47.402Z,64.08
2023-04-07T06:08:15.836Z,63.53
2023-04-07T06:10:44.277Z,63.16
2023-04-07T06:13:14.477Z,63.76
2023-04-07T06:15:43.668Z,63.84
2023-04-07T06:18:11.831Z,63.52
2023-04-07T06:20:42.277Z,63.68
2023-04-07T06:23:11.492Z,64.74
2023-04-07T06:25:41.120Z,64.44
2023-04-07T06:28:09.331Z,64.58
2023-04-07T06:30:38.910Z,64.41
2023-04-07T06:33:10.495Z,64.28
2023-04-07T06:35:41.313Z,63.99
2023-04-07T06:38:11.504Z,63.20
2023-04-07T06:40:39.770Z,62.43
2023-04-07T06:43:08.170Z,62.14
2023-04-07T06:45:45.599Z,60.97
2023-04-07T06:48:13.750Z,59.78
2023-04-07T06:50:42.768Z,59.62
2023-04-07T06:53:11.442Z,59.14
2023-04-07T06:55:40.167Z,58.29
2023-04-07T06:58:08.996Z,58.82
2023-04-07T07:00:39.807Z,59.03
2023-04-07T07:03:09.649Z,58.84
2023-04-07T07:05:38.171Z,58.40
2023-04-07T07:08:06.712Z,58.38
2023-04-07T07:10:35.228Z,57.85
2023-04-07T07:13:03.658Z,58.63
2023-04-07T07:15:32.466Z,59.06
2023-04-07T07:18:00.639Z,58.46
2023-04-07T07:20:30.558Z,58.80
2023-04-07T07:22:59.775Z,59.52
2023-04-07T07:25:27.924Z,59.97
2023-04-07T07:27:56.185Z,59.69
2023-04-07T07:30:26.156Z,58.66
2023-04-07T07:32:56.312Z,59.76
2023-04-07T07:35:25.394Z,60.08
2023-04-07T07:37:55.119Z,60.82
2023-04-07T07:40:23.516Z,59.93
2023-04-07T07:42:51.711Z,59.54
2023-04-07T07:45:20.535Z,59.22
2023-04-07T07:47:48.781Z,58.81
2023-04-07T07:50:16.976Z,59.26
2023-04-07T07:52:45.876Z,60.02
2023-04-07T07:55:15.476Z,59.92
2023-04-07T07:57:43.782Z,59.43
2023-04-07T08:00:13.528Z,58.94
2023-04-07T08:02:42.031Z,59.01
2023-04-07T08:05:11.366Z,58.87
2023-04-07T08:07:39.809Z,58.37
2023-04-07T08:10:09.267Z,59.01
2023-04-07T08:12:39.664Z,59.67
2023-04-07T08:15:09.834Z,59.06
2023-04-07T08:17:38.307Z,59.30
2023-04-07T08:20:08.423Z,59.70
2023-04-07T08:22:36.587Z,59.60
2023-04-07T08:25:05.374Z,58.17
2023-04-07T08:27:35.631Z,59.45
2023-04-07T08:30:07.491Z,59.31
2023-04-07T08:33:00.790Z,58.96
2023-04-07T08:35:29.830Z,58.17
2023-04-07T08:37:58.021Z,58.37
2023-04-07T08:40:26.351Z,58.08
2023-04-07T08:42:54.633Z,58.18
2023-04-07T08:45:25.614Z,57.74
2023-04-07T08:47:57.917Z,57.50
2023-04-07T08:50:28.329Z,56.23
2023-04-07T08:52:57.979Z,55.67
2023-04-07T08:55:26.886Z,55.36
2023-04-07T08:57:56.319Z,55.11
2023-04-07T09:00:26.212Z,55.73
2023-04-07T09:02:54.715Z,55.48
2023-04-07T09:05:25.108Z,56.13
2023-04-07T09:07:53.362Z,56.04
2023-04-07T09:10:22.186Z,55.34
2023-04-07T09:12:50.934Z,55.79
2023-04-07T09:15:19.243Z,56.06
2023-04-07T09:17:49.135Z,56.21
2023-04-07T09:20:17.470Z,55.97
2023-04-07T09:22:47.631Z,56.18
2023-04-07T09:25:19.267Z,55.84
2023-04-07T09:27:59.486Z,55.73
2023-04-07T09:30:28.394Z,56.55
2023-04-07T09:32:59.018Z,55.85
2023-04-07T09:35:28.362Z,55.96
2023-04-07T09:38:04.775Z,55.06
2023-04-07T09:40:33.392Z,55.57
2023-04-07T09:43:02.782Z,54.40
2023-04-07T09:45:35.703Z,55.10
2023-04-07T09:48:10.939Z,53.72
2023-04-07T09:50:45.859Z,53.12
2023-04-07T09:53:14.341Z,54.19
2023-04-07T09:55:43.434Z,53.34
2023-04-07T09:58:14.476Z,53.32
2023-04-07T10:00:43.307Z,52.92
2023-04-07T10:03:13.487Z,54.68
2023-04-07T10:05:42.651Z,55.09
2023-04-07T10:08:11.474Z,56.38
2023-04-07T10:10:43.841Z,55.93
2023-04-07T10:13:12.832Z,55.60
2023-04-07T10:15:41.906Z,55.86
2023-04-07T10:18:12.836Z,55.50
2023-04-07T10:20:42.640Z,55.52
2023-04-07T10:23:18.956Z,55.09
2023-04-07T10:25:51.142Z,54.85
2023-04-07T10:28:21.339Z,54.61
2023-04-07T10:30:53.029Z,55.18
2023-04-07T10:33:47.453Z,55.56
2023-04-07T10:36:16.761Z,55.07
2023-04-07T10:39:24.100Z,54.85
2023-04-07T10:41:53.635Z,55.99
2023-04-07T10:44:49.749Z,55.16
2023-04-07T10:47:18.496Z,54.63
2023-04-07T10:50:22.835Z,55.13
2023-04-07T10:53:08.264Z,54.96
2023-04-07T10:55:39.407Z,55.32
2023-04-07T10:58:24.592Z,55.46
2023-04-07T11:01:23.245Z,54.88
2023-04-07T11:04:01.601Z,54.64
2023-04-07T11:06:31.731Z,55.14
2023-04-07T11:09:00.134Z,55.02
2023-04-07T11:11:42.979Z,53.99
2023-04-07T11:14:12.550Z,54.81
2023-04-07T11:16:45.036Z,54.71
2023-04-07T11:19:13.480Z,54.16
2023-04-07T11:21:45.341Z,52.99
2023-04-07T11:24:33.355Z,52.53
2023-04-07T11:27:02.154Z,52.98
2023-04-07T11:29:30.667Z,53.12
2023-04-07T11:32:01.149Z,52.97
2023-04-07T11:34:32.108Z,53.04
2023-04-07T11:37:21.008Z,54.23
2023-04-07T11:39:54.219Z,54.59
2023-04-07T11:42:34.040Z,57.76
2023-04-07T11:45:02.279Z,57.89
2023-04-07T11:47:37.368Z,58.44
2023-04-07T11:50:06.420Z,57.10
2023-04-07T11:52:43.960Z,58.10
2023-04-07T11:55:22.865Z,59.13
2023-04-07T11:57:52.234Z,59.39
2023-04-07T12:00:22.591Z,60.22
2023-04-07T12:02:51.496Z,60.74
2023-04-07T12:05:20.169Z,61.80
2023-04-07T12:07:57.703Z,62.41
2023-04-07T12:10:26.662Z,62.48
2023-04-07T12:12:55.276Z,64.09
2023-04-07T12:15:24.087Z,63.17
2023-04-07T12:17:55.630Z,61.78
2023-04-07T12:20:23.927Z,61.62
2023-04-07T12:22:52.681Z,60.56
2023-04-07T12:25:24.867Z,59.75
2023-04-07T12:27:53.563Z,59.79
2023-04-07T12:30:21.844Z,60.68
2023-04-07T12:32:50.096Z,60.13
2023-04-07T12:35:18.268Z,59.93
2023-04-07T12:37:49.042Z,60.38
2023-04-07T12:40:18.375Z,59.74
2023-04-07T12:42:48.132Z,59.65
2023-04-07T12:45:16.388Z,60.33
2023-04-07T12:47:46.134Z,60.58
2023-04-07T12:50:14.295Z,60.43
2023-04-07T12:52:43.075Z,61.39
2023-04-07T12:55:11.212Z,61.89
2023-04-07T12:57:39.351Z,62.82
2023-04-07T13:00:11.393Z,63.26
2023-04-07T13:02:39.809Z,63.57
2023-04-07T13:05:08.801Z,63.88
2023-04-07T13:07:37.872Z,63.83
2023-04-07T13:10:08.305Z,64.26
2023-04-07T13:12:36.638Z,64.65
2023-04-07T13:15:05.795Z,65.46
2023-04-07T13:17:36.895Z,66.03
2023-04-07T13:20:05.978Z,65.52
2023-04-07T13:22:35.822Z,65.40
2023-04-07T13:25:04.689Z,65.26
2023-04-07T13:27:32.944Z,65.15
2023-04-07T13:30:01.065Z,64.63
2023-04-07T13:32:29.285Z,64.48
2023-04-07T13:34:59.906Z,64.08
2023-04-07T13:37:28.426Z,64.42
2023-04-07T13:39:56.469Z,65.49
2023-04-07T13:42:24.623Z,66.26
2023-04-07T13:44:54.552Z,66.75
2023-04-07T13:47:22.781Z,67.17
2023-04-07T13:49:52.079Z,67.25
2023-04-07T13:52:21.826Z,67.53
2023-04-07T13:54:49.969Z,67.00
2023-04-07T13:57:20.850Z,67.38
2023-04-07T13:59:52.707Z,66.93
2023-04-07T14:02:21.625Z,67.24
2023-04-07T14:04:50.024Z,66.28
2023-04-07T14:07:18.344Z,66.64
2023-04-07T14:09:48.226Z,67.04
2023-04-07T14:12:16.482Z,66.75
2023-04-07T14:14:44.864Z,66.53
2023-04-07T14:17:12.953Z,66.60
2023-04-07T14:19:41.348Z,66.13
2023-04-07T14:22:09.651Z,66.25
2023-04-07T14:24:38.022Z,66.05
2023-04-07T14:27:07.542Z,66.62
2023-04-07T14:29:35.663Z,66.68
2023-04-07T14:32:03.782Z,67.24
2023-04-07T14:34:31.900Z,67.09
2023-04-07T14:37:00.009Z,68.38
2023-04-07T14:39:28.389Z,67.90
2023-04-07T14:41:56.565Z,67.68
2023-04-07T14:44:27.038Z,67.71
2023-04-07T14:46:55.688Z,67.41
2023-04-07T14:49:25.102Z,66.88
2023-04-07T14:51:53.646Z,66.50
2023-04-07T14:54:21.770Z,65.28
2023-04-07T14:56:50.669Z,64.66
2023-04-07T14:59:18.715Z,64.76
2023-04-07T15:01:48.391Z,64.23
2023-04-07T15:04:16.689Z,64.57
2023-04-07T15:06:46.203Z,63.81
2023-04-07T15:09:16.715Z,63.18
2023-04-07T15:11:46.001Z,62.65
2023-04-07T15:14:15.818Z,62.62
2023-04-07T15:16:44.340Z,61.34
2023-04-07T15:19:18.338Z,60.98
2023-04-07T15:21:46.428Z,60.40
2023-04-07T15:24:16.286Z,61.24
2023-04-07T15:26:44.950Z,61.62
2023-04-07T15:29:13.076Z,61.08
2023-04-07T15:31:41.233Z,61.08
2023-04-07T15:34:09.319Z,61.42
2023-04-07T15:36:39.348Z,61.31
2023-04-07T15:39:11.820Z,60.95
2023-04-07T15:41:39.983Z,61.37
2023-04-07T15:44:08.107Z,61.97
2023-04-07T15:46:36.250Z,62.03
2023-04-07T15:49:04.345Z,61.90
2023-04-07T15:51:32.452Z,61.89
2023-04-07T15:54:03.047Z,61.81
2023-04-07T15:56:31.392Z,62.16
2023-04-07T15:58:59.458Z,62.04
2023-04-07T16:01:27.626Z,62.80
2023-04-07T16:03:56.060Z,62.56
2023-04-07T16:06:24.386Z,62.24
2023-04-07T16:08:53.730Z,61.74
2023-04-07T16:11:23.120Z,61.33
2023-04-07T16:13:51.357Z,60.77
2023-04-07T16:16:19.948Z,60.82
2023-04-07T16:18:48.405Z,59.90
2023-04-07T16:21:16.649Z,59.88
2023-04-07T16:23:44.946Z,59.66
2023-04-07T16:26:13.671Z,60.03
2023-04-07T16:28:44.253Z,61.10
2023-04-07T16:31:12.498Z,62.26
2023-04-07T16:33:40.930Z,62.01
2023-04-07T16:36:09.352Z,61.74
2023-04-07T16:38:38.353Z,61.94
2023-04-07T16:41:08.994Z,61.18
2023-04-07T16:43:37.526Z,60.94
2023-04-07T16:46:08.615Z,59.83
2023-04-07T16:48:37.283Z,59.89
2023-04-07T16:51:08.276Z,59.89
2023-04-07T16:53:36.569Z,60.52
2023-04-07T16:56:05.527Z,60.96
2023-04-07T16:58:33.802Z,61.76
2023-04-07T17:01:02.397Z,61.80
2023-04-07T17:03:32.484Z,62.46
2023-04-07T17:06:05.532Z,62.75
2023-04-07T17:08:34.254Z,62.37
2023-04-07T17:11:07.074Z,63.18
2023-04-07T17:13:36.209Z,62.21
2023-04-07T17:16:05.659Z,62.05
2023-04-07T17:18:35.334Z,62.24
2023-04-07T17:21:03.736Z,62.50
2023-04-07T17:23:33.963Z,62.30
2023-04-07T17:26:02.176Z,62.13
2023-04-07T17:28:31.477Z,61.23
2023-04-07T17:30:59.746Z,61.57
2023-04-07T17:33:30.527Z,61.45
2023-04-07T17:36:03.742Z,60.91
2023-04-07T17:38:32.725Z,60.82
2023-04-07T17:41:02.913Z,60.94
2023-04-07T17:43:35.609Z,60.90
2023-04-07T17:46:04.790Z,61.15
2023-04-07T17:48:33.506Z,61.43
2023-04-07T17:51:03.430Z,61.92
2023-04-07T17:53:32.216Z,62.01
2023-04-07T17:56:00.930Z,61.99
2023-04-07T17:58:29.550Z,62.51
2023-04-07T18:00:57.954Z,62.84
2023-04-07T18:03:26.339Z,63.13
2023-04-07T18:05:54.938Z,63.45
2023-04-07T18:08:26.065Z,64.17
2023-04-07T18:10:55.723Z,64.40
2023-04-07T18:13:23.935Z,63.93
2023-04-07T18:15:52.100Z,63.27
2023-04-07T18:18:21.208Z,63.85
2023-04-07T18:20:50.720Z,64.07
2023-04-07T18:23:18.891Z,64.08
2023-04-07T18:25:49.460Z,64.70
2023-04-07T18:28:18.557Z,64.64
2023-04-07T18:30:46.994Z,64.44
2023-04-07T18:33:15.437Z,64.67
2023-04-07T18:35:43.597Z,64.42
2023-04-07T18:38:11.871Z,64.49
2023-04-07T18:40:40.019Z,64.69
2023-04-07T18:43:09.654Z,64.77
2023-04-07T18:45:37.754Z,64.75
2023-04-07T18:48:06.152Z,65.65
2023-04-07T18:50:34.391Z,65.75
2023-04-07T18:53:03.040Z,65.69
2023-04-07T18:55:31.259Z,65.38
2023-04-07T18:57:59.451Z,65.66
2023-04-07T19:00:28.962Z,65.29
2023-04-07T19:03:00.722Z,65.95
2023-04-07T19:05:29.093Z,65.66
2023-04-07T19:07:57.220Z,65.82
2023-04-07T19:10:25.908Z,66.63
2023-04-07T19:12:54.107Z,66.64
2023-04-07T19:15:22.377Z,67.20
2023-04-07T19:17:52.130Z,66.46
2023-04-07T19:20:33.741Z,67.24
2023-04-07T19:23:03.411Z,67.27
2023-04-07T19:25:31.856Z,67.69
2023-04-07T19:28:00.250Z,68.18
2023-04-07T19:30:28.537Z,68.75
2023-04-07T19:32:58.192Z,68.73
2023-04-07T19:35:27.048Z,68.43
2023-04-07T19:37:55.128Z,69.09
2023-04-07T19:40:23.580Z,68.45
2023-04-07T19:42:51.732Z,68.62
2023-04-07T19:45:19.850Z,68.26
2023-04-07T19:47:48.340Z,68.56
2023-04-07T19:50:18.081Z,68.19
2023-04-07T19:52:47.332Z,68.63
2023-04-07T19:55:15.919Z,68.37
2023-04-07T19:57:43.994Z,69.01
2023-04-07T20:00:13.183Z,68.36
2023-04-07T20:02:50.933Z,68.65
2023-04-07T20:05:20.903Z,68.85
2023-04-07T20:07:48.933Z,68.52
2023-04-07T20:10:17.156Z,68.71
2023-04-07T20:12:45.780Z,68.25
2023-04-07T20:15:14.015Z,68.48
2023-04-07T20:17:42.672Z,68.18
2023-04-07T20:20:12.967Z,68.14
2023-04-07T20:22:42.422Z,68.38
2023-04-07T20:25:10.939Z,68.43
2023-04-07T20:27:39.848Z,68.17
2023-04-07T20:30:09.372Z,68.18
2023-04-07T20:32:37.531Z,68.01
2023-04-07T20:35:06.873Z,68.05
2023-04-07T20:37:35.068Z,68.02
2023-04-07T20:40:04.919Z,67.97
2023-04-07T20:42:33.056Z,68.19
2023-04-07T20:45:03.745Z,68.21
2023-04-07T20:47:36.666Z,68.05
2023-04-07T20:50:05.671Z,67.67
2023-04-07T20:52:35.625Z,67.79
2023-04-07T20:55:05.957Z,68.15
2023-04-07T20:57:34.155Z,67.69
2023-04-07T21:00:02.572Z,68.48
2023-04-07T21:02:31.805Z,68.05
2023-04-07T21:05:00.136Z,68.17
2023-04-07T21:07:28.265Z,68.56
2023-04-07T21:09:56.329Z,68.15
2023-04-07T21:12:25.760Z,68.40
2023-04-07T21:14:53.912Z,69.09
2023-04-07T21:17:22.032Z,68.73
2023-04-07T21:19:50.082Z,69.27
2023-04-07T21:22:18.210Z,69.49
2023-04-07T21:24:46.232Z,68.98
2023-04-07T21:27:14.324Z,68.91
2023-04-07T21:29:43.648Z,68.72
2023-04-07T21:32:12.234Z,69.10
2023-04-07T21:34:40.557Z,69.13
2023-04-07T21:37:09.081Z,68.71
2023-04-07T21:39:37.297Z,69.00
2023-04-07T21:42:05.412Z,69.11
2023-04-07T21:44:33.473Z,69.30
2023-04-07T21:47:03.493Z,68.73
2023-04-07T21:49:31.863Z,69.74
2023-04-07T21:52:00.202Z,69.74
2023-04-07T21:54:28.273Z,69.13
2023-04-07T21:56:57.108Z,69.18
2023-04-07T21:59:25.177Z,69.20
2023-04-07T22:01:53.612Z,69.10
2023-04-07T22:04:23.270Z,69.35
2023-04-07T22:06:51.488Z,69.31
2023-04-07T22:09:19.597Z,69.08
2023-04-07T22:11:47.721Z,69.15
2023-04-07T22:14:15.786Z,69.42
2023-04-07T22:16:43.918Z,68.99
2023-04-07T22:19:11.942Z,69.57
2023-04-07T22:21:41.407Z,69.00
2023-04-07T22:24:09.519Z,69.47
2023-04-07T22:26:38.561Z,69.08
2023-04-07T22:29:06.932Z,69.17
2023-04-07T22:31:35.087Z,69.50
2023-04-07T22:34:03.603Z,69.01
2023-04-07T22:36:33.498Z,69.41
2023-04-07T22:39:03.392Z,68.83
2023-04-07T22:41:31.569Z,69.34
2023-04-07T22:43:59.680Z,68.96
2023-04-07T22:46:27.893Z,68.70
2023-04-07T22:48:56.387Z,68.96
2023-04-07T22:51:24.596Z,68.94
2023-04-07T22:53:52.651Z,69.18
2023-04-07T22:56:22.098Z,69.41
2023-04-07T22:58:50.658Z,69.05
2023-04-07T23:01:19.080Z,69.56
2023-04-07T23:03:48.212Z,68.73
2023-04-07T23:06:16.579Z,69.28
2023-04-07T23:08:45.843Z,69.36
2023-04-07T23:11:15.645Z,69.34
2023-04-07T23:13:45.262Z,69.14
2023-04-07T23:16:13.805Z,69.76
2023-04-07T23:18:43.244Z,69.35
2023-04-07T23:21:11.993Z,69.72
2023-04-07T23:23:40.142Z,69.52
2023-04-07T23:26:08.197Z,70.18
2023-04-07T23:28:36.595Z,69.70
2023-04-07T23:31:06.651Z,70.23
2023-04-07T23:33:35.060Z,70.13
2023-04-07T23:36:03.273Z,69.75
2023-04-07T23:38:31.703Z,69.34
2023-04-07T23:40:59.808Z,69.83
2023-04-07T23:43:27.815Z,70.02
2023-04-07T23:45:56.576Z,69.97
2023-04-07T23:48:26.463Z,69.50
2023-04-07T23:50:54.735Z,69.68
2023-04-07T23:53:22.792Z,69.05
2023-04-07T23:55:51.973Z,69.13
2023-04-07T23:58:20.086Z,69.33
